Time;durP1;ratioP1;P1;durP2;ratioP2;P2;SDS_P1;SDS_P2;PMS_P1;PMS_P2;Temp;Humidity;BMP_temperature;BMP_pressure;BME280_temperature;BME280_humidity;BME280_pressure;Samples;Min_cycle;Max_cycle;Signal;HPM_P1;HPM_P2
2022/10/18 00:01:04;;;;;;;12.43;6.07;;;;;;;10.03;84.48;102144.25;5032940;28;20057;-85
2022/10/18 00:03:30;;;;;;;10.93;6.47;;;;;;;9.88;84.92;102138.97;5029574;28;20029;-85
2022/10/18 00:05:57;;;;;;;15.07;6.60;;;;;;;9.49;85.58;102067.56;5032952;28;20033;-84
2022/10/18 00:08:23;;;;;;;15.02;6.80;;;;;;;9.74;86.05;102123.34;5032648;28;20034;-84
2022/10/18 00:10:49;;;;;;;10.52;5.55;;;;;;;9.33;86.33;102082.00;5032484;28;20041;-84
2022/10/18 00:13:14;;;;;;;12.15;5.82;;;;;;;9.55;87.51;102122.13;5032283;28;20030;-82
2022/10/18 00:15:48;;;;;;;9.45;5.97;;;;;;;9.43;88.15;102101.53;5032964;28;20036;-84
2022/10/18 00:18:13;;;;;;;11.48;6.25;;;;;;;9.59;88.32;102118.06;5032704;28;20399;-83
2022/10/18 00:20:39;;;;;;;11.35;6.18;;;;;;;9.66;88.10;102117.69;5047912;28;20028;-84
2022/10/18 00:23:04;;;;;;;9.95;6.20;;;;;;;9.49;88.83;102083.03;5032391;28;20021;-84
2022/10/18 00:25:30;;;;;;;12.05;6.25;;;;;;;9.74;87.10;102101.03;5032669;28;20025;-85
2022/10/18 00:27:55;;;;;;;9.95;5.93;;;;;;;10.01;87.00;102117.44;5032372;28;20017;-85
2022/10/18 00:30:20;;;;;;;10.32;5.80;;;;;;;9.74;83.73;102084.66;5047732;28;20087;-85
2022/10/18 00:32:46;;;;;;;10.07;5.38;;;;;;;10.04;82.90;102122.81;5031864;28;20087;-84
2022/10/18 00:35:11;;;;;;;10.82;5.80;;;;;;;9.77;82.94;102110.66;5032404;28;20030;-84
2022/10/18 00:37:37;;;;;;;10.77;5.78;;;;;;;9.71;83.12;102103.41;5032425;28;20026;-84
2022/10/18 00:40:03;;;;;;;10.05;5.60;;;;;;;9.70;82.60;102078.41;5031913;28;20422;-85
2022/10/18 00:42:31;;;;;;;7.35;5.35;;;;;;;9.86;82.05;102085.47;5032125;28;20125;-83
2022/10/18 00:45:29;;;;;;;15.05;5.65;;;;;;;9.83;80.32;102075.84;5031903;28;20030;-84
2022/10/18 00:48:01;;;;;;;10.50;5.53;;;;;;;9.85;79.83;102081.09;4970809;28;20069;-84
2022/10/18 00:50:31;;;;;;;10.77;6.30;;;;;;;9.96;79.54;102102.47;4970689;28;20560;-83
2022/10/18 00:53:01;;;;;;;10.93;5.13;;;;;;;9.86;79.92;102094.09;4970377;28;20505;-84
2022/10/18 00:55:30;;;;;;;14.02;6.25;;;;;;;9.98;79.98;102100.84;4970632;28;20456;-84
2022/10/18 00:57:56;;;;;;;9.68;5.30;;;;;;;10.00;77.91;102102.75;4970461;28;20201;-84
2022/10/18 01:00:22;;;;;;;14.15;5.85;;;;;;;9.70;77.74;102070.66;4970173;28;20544;-84
2022/10/18 01:02:47;;;;;;;11.27;5.43;;;;;;;9.72;78.20;102084.56;4970522;28;20034;-84
2022/10/18 01:05:15;;;;;;;9.25;5.10;;;;;;;9.77;78.52;102095.16;4970408;28;20047;-83
2022/10/18 01:07:49;;;;;;;10.93;5.30;;;;;;;9.80;79.38;102097.97;4970549;28;20097;-86
2022/10/18 01:10:20;;;;;;;10.73;5.32;;;;;;;9.83;79.03;102104.22;4970195;28;20039;-87
2022/10/18 01:13:28;;;;;;;9.48;5.75;;;;;;;9.83;78.57;102096.50;4970381;28;20047;-86
2022/10/18 01:16:04;;;;;;;10.57;5.63;;;;;;;9.82;78.99;102094.69;4969792;28;20070;-86
2022/10/18 01:18:59;;;;;;;9.90;5.70;;;;;;;9.77;78.89;102093.50;4969919;28;20066;-87
2022/10/18 01:21:31;;;;;;;12.77;5.43;;;;;;;9.76;79.91;102088.22;4970317;28;20039;-87
2022/10/18 01:24:54;;;;;;;9.43;5.80;;;;;;;9.44;82.59;102087.88;5011488;28;20064;-86
2022/10/18 01:27:35;;;;;;;9.25;5.68;;;;;;;9.40;83.79;102085.88;4970019;28;20045;-86
2022/10/18 01:30:13;;;;;;;9.20;4.97;;;;;;;9.42;82.82;102089.47;4970077;28;20406;-87
2022/10/18 01:32:47;;;;;;;8.65;5.57;;;;;;;9.44;81.98;102092.13;4953439;28;20045;-85
2022/10/18 01:35:18;;;;;;;10.95;5.63;;;;;;;9.35;80.83;102076.94;4969952;28;20413;-86
2022/10/18 01:37:48;;;;;;;8.82;5.15;;;;;;;9.03;79.69;102063.66;4969700;28;20538;-86
2022/10/18 01:40:18;;;;;;;11.32;5.75;;;;;;;9.29;79.13;102097.16;4969823;28;20049;-87
2022/10/18 01:42:46;;;;;;;10.63;5.72;;;;;;;9.17;78.67;102098.09;4963445;28;20082;-86
2022/10/18 01:45:13;;;;;;;8.65;5.10;;;;;;;9.15;78.76;102102.22;4968751;28;20094;-86
2022/10/18 01:47:41;;;;;;;10.85;5.18;;;;;;;8.96;78.48;102078.56;4969715;28;20053;-87
2022/10/18 01:50:07;;;;;;;14.57;5.63;;;;;;;8.77;76.50;102066.97;4969772;28;20508;-86
2022/10/18 01:52:32;;;;;;;10.40;4.88;;;;;;;8.87;75.60;102087.44;4969623;28;20074;-86
2022/10/18 01:54:59;;;;;;;11.15;4.97;;;;;;;8.83;76.13;102090.56;4969485;28;20043;-86
2022/10/18 01:58:12;;;;;;;12.88;5.25;;;;;;;8.80;75.59;102098.09;4984980;28;20519;-85
2022/10/18 02:00:43;;;;;;;13.00;5.22;;;;;;;8.48;75.39;102081.25;4950301;28;20483;-86
2022/10/18 02:03:19;;;;;;;12.43;5.93;;;;;;;8.51;77.17;102088.31;4950067;29;20055;-74
2022/10/18 02:05:55;;;;;;;13.75;6.00;;;;;;;8.49;77.89;102100.19;4949390;29;20409;-78
2022/10/18 02:08:33;;;;;;;12.48;5.65;;;;;;;8.44;78.97;102097.25;4950128;29;20074;-78
2022/10/18 02:11:09;;;;;;;10.63;5.60;;;;;;;8.47;77.86;102099.16;4950025;29;20046;-78
2022/10/18 02:13:43;;;;;;;10.05;5.70;;;;;;;8.59;77.68;102100.06;4950053;29;20035;-79
2022/10/18 02:16:34;;;;;;;11.20;5.82;;;;;;;8.62;78.44;102095.09;4949749;29;20830;-77
2022/10/18 02:19:09;;;;;;;12.15;5.30;;;;;;;8.66;77.83;102101.38;4949998;29;20054;-78
2022/10/18 02:21:37;;;;;;;7.63;5.22;;;;;;;8.46;77.61;102077.69;4949827;29;20069;-78
2022/10/18 02:24:04;;;;;;;12.02;5.50;;;;;;;8.59;78.29;102097.47;4949937;29;20035;-79
2022/10/18 02:26:30;;;;;;;13.82;6.30;;;;;;;8.46;78.31;102097.34;4949447;29;20043;-78
2022/10/18 02:28:55;;;;;;;10.13;5.40;;;;;;;8.46;78.40;102100.88;4949930;29;20051;-78
2022/10/18 02:31:27;;;;;;;9.43;5.72;;;;;;;8.46;79.16;102098.28;4948818;29;20045;-78
2022/10/18 02:33:57;;;;;;;12.48;6.22;;;;;;;8.37;79.53;102083.06;4949861;29;20035;-78
2022/10/18 02:36:40;;;;;;;;;;;;;;;8.40;79.80;102098.69;4995193;28;20045;-79
2022/10/18 02:39:15;;;;;;;11.52;5.40;;;;;;;8.32;80.33;102092.09;5030109;28;19924;-78
2022/10/18 02:41:42;;;;;;;11.20;5.75;;;;;;;8.29;80.46;102091.88;5026372;28;20499;-78
2022/10/18 02:44:08;;;;;;;12.35;5.70;;;;;;;8.20;80.47;102070.63;5027573;28;20450;-78
2022/10/18 02:46:34;;;;;;;9.85;5.82;;;;;;;8.31;79.74;102092.91;5030116;28;20033;-78
2022/10/18 02:48:59;;;;;;;12.45;5.43;;;;;;;8.29;79.17;102089.31;5029943;28;20083;-78
2022/10/18 02:51:25;;;;;;;10.30;5.28;;;;;;;8.19;79.33;102082.59;5030095;28;20029;-78
2022/10/18 02:53:50;;;;;;;8.98;5.20;;;;;;;8.13;79.93;102105.31;5029688;28;20065;-78
2022/10/18 02:56:16;;;;;;;16.42;6.10;;;;;;;8.13;80.52;102096.72;5030013;28;20479;-78
2022/10/18 02:58:41;;;;;;;8.88;5.57;;;;;;;8.13;80.37;102102.72;5030065;28;20037;-78
2022/10/18 03:01:07;;;;;;;10.30;5.72;;;;;;;8.05;80.25;102088.41;5029674;28;20096;-78
2022/10/18 03:03:32;;;;;;;13.00;5.85;;;;;;;8.12;80.28;102089.75;5028841;28;20686;-78
2022/10/18 03:05:57;;;;;;;10.25;5.70;;;;;;;8.20;80.17;102098.91;5030199;28;20519;-78
2022/10/18 03:08:23;;;;;;;9.25;5.43;;;;;;;8.20;80.39;102101.50;5044803;28;20510;-78
2022/10/18 03:10:49;;;;;;;12.60;5.50;;;;;;;8.17;80.97;102098.72;5011011;28;20041;-78
2022/10/18 03:13:15;;;;;;;12.82;6.00;;;;;;;8.22;80.95;102103.44;5030299;28;20034;-78
2022/10/18 03:15:41;;;;;;;9.95;5.72;;;;;;;8.16;81.34;102094.34;5029596;28;20037;-78
2022/10/18 03:18:06;;;;;;;8.70;5.50;;;;;;;7.91;81.45;102065.16;5029701;28;20037;-78
2022/10/18 03:20:33;;;;;;;13.00;5.88;;;;;;;7.79;81.58;102048.84;5029850;28;20029;-78
2022/10/18 03:22:58;;;;;;;10.15;5.88;;;;;;;8.02;81.89;102093.34;5029283;28;20049;-78
2022/10/18 03:25:24;;;;;;;7.88;5.10;;;;;;;8.00;82.22;102103.53;5029606;28;20076;-78
2022/10/18 03:27:49;;;;;;;9.40;5.80;;;;;;;7.90;82.39;102083.03;5029666;28;20029;-78
2022/10/18 03:30:14;;;;;;;12.00;7.07;;;;;;;7.46;82.29;101999.28;5029520;28;20038;-78
2022/10/18 03:32:40;;;;;;;10.18;6.85;;;;;;;8.02;82.94;102088.19;5029609;28;20540;-81
2022/10/18 03:35:08;;;;;;;10.65;6.53;;;;;;;8.11;80.87;102099.16;5029897;28;20145;-81
2022/10/18 03:37:33;;;;;;;12.13;7.25;;;;;;;7.91;81.17;102085.75;5028036;28;20040;-81
2022/10/18 03:39:59;;;;;;;11.32;6.70;;;;;;;7.77;82.20;102071.84;5029847;28;20029;-78
2022/10/18 03:42:24;;;;;;;12.45;7.65;;;;;;;7.78;82.45;102099.34;5031358;28;20029;-78
2022/10/18 03:44:50;;;;;;;11.30;7.10;;;;;;;7.93;81.71;102102.16;5046217;28;20038;-78
2022/10/18 03:47:15;;;;;;;12.95;7.07;;;;;;;7.96;80.87;102098.91;5033044;28;20032;-78
2022/10/18 03:49:41;;;;;;;12.85;6.93;;;;;;;7.92;79.77;102078.91;5033008;28;20036;-81
2022/10/18 03:52:06;;;;;;;12.50;6.68;;;;;;;8.04;80.64;102096.94;5031595;28;20419;-80
2022/10/18 03:54:32;;;;;;;11.88;6.95;;;;;;;8.18;81.26;102119.41;5031723;28;20433;-80
2022/10/18 03:56:57;;;;;;;12.48;7.18;;;;;;;8.03;80.65;102098.59;5032762;28;20483;-78
2022/10/18 03:59:22;;;;;;;15.25;6.80;;;;;;;7.87;80.75;102075.09;5032693;28;20029;-78
2022/10/18 04:01:48;;;;;;;10.48;6.97;;;;;;;8.02;79.93;102106.19;5032476;28;20049;-78
2022/10/18 04:04:14;;;;;;;11.50;6.97;;;;;;;7.80;79.24;102068.63;5032912;28;20026;-78
2022/10/18 04:06:39;;;;;;;15.43;6.90;;;;;;;7.99;78.99;102116.25;5032512;28;20030;-78
2022/10/18 04:09:05;;;;;;;12.60;7.05;;;;;;;7.88;79.40;102098.34;5032936;28;20109;-78
2022/10/18 04:11:30;;;;;;;11.55;6.70;;;;;;;7.88;79.07;102116.34;5032781;28;20112;-78
2022/10/18 04:13:56;;;;;;;8.90;6.15;;;;;;;7.83;79.68;102109.97;5031183;28;20410;-76
2022/10/18 04:16:21;;;;;;;11.75;7.28;;;;;;;7.73;78.13;102108.38;5039712;28;20029;-76
2022/10/18 04:18:48;;;;;;;12.95;7.22;;;;;;;7.68;77.10;102091.72;5032456;28;20022;-76
2022/10/18 04:21:14;;;;;;;21.02;6.60;;;;;;;7.65;76.91;102095.75;5031987;28;20051;-76
2022/10/18 04:23:39;;;;;;;11.48;7.10;;;;;;;7.73;76.52;102104.94;5032474;28;20112;-76
2022/10/18 04:26:05;;;;;;;12.70;6.55;;;;;;;7.60;75.80;102101.44;5031291;28;20061;-76
2022/10/18 04:28:32;;;;;;;10.38;6.00;;;;;;;7.51;76.24;102095.59;5031043;28;20373;-75
2022/10/18 04:30:57;;;;;;;12.88;6.53;;;;;;;7.20;76.74;102054.75;5031991;28;20457;-75
2022/10/18 04:33:23;;;;;;;17.70;7.55;;;;;;;7.16;77.18;102088.66;5031973;28;20030;-74
2022/10/18 04:35:50;;;;;;;14.98;7.05;;;;;;;6.92;77.13;102077.41;5030537;28;20036;-74
2022/10/18 04:38:16;;;;;;;11.95;6.53;;;;;;;6.84;77.87;102071.69;5032250;28;20479;-74
2022/10/18 04:40:41;;;;;;;17.83;7.60;;;;;;;6.98;79.59;102093.28;5032251;28;20025;-73
2022/10/18 04:43:07;;;;;;;13.98;8.38;;;;;;;6.78;81.13;102071.22;5025555;28;20056;-73
2022/10/18 04:45:34;;;;;;;14.65;7.55;;;;;;;6.82;81.65;102092.84;5031982;28;20041;-73
2022/10/18 04:47:59;;;;;;;16.52;8.68;;;;;;;6.78;82.09;102120.88;5032180;28;20034;-74
2022/10/18 04:50:24;;;;;;;22.92;9.68;;;;;;;6.52;83.06;102120.44;5031420;28;20411;-73
2022/10/18 04:52:52;;;;;;;22.70;10.40;;;;;;;6.30;84.02;102114.50;5031129;28;20099;-74
2022/10/18 04:55:18;;;;;;;23.23;10.15;;;;;;;6.33;83.91;102124.13;5046827;28;20488;-77
2022/10/18 04:57:43;;;;;;;16.92;8.43;;;;;;;6.22;83.41;102127.47;5013524;28;20144;-74
2022/10/18 05:00:09;;;;;;;26.90;9.80;;;;;;;6.04;83.66;102134.56;5034240;28;20506;-73
2022/10/18 05:02:35;;;;;;;15.90;7.53;;;;;;;5.99;84.55;102117.16;5026636;28;20033;-74
2022/10/18 05:05:00;;;;;;;33.80;9.25;;;;;;;6.07;85.13;102124.53;5025966;28;20541;-73
2022/10/18 05:07:26;;;;;;;24.23;8.55;;;;;;;6.14;85.12;102117.50;5026501;28;20537;-74
2022/10/18 05:09:51;;;;;;;17.50;7.97;;;;;;;6.26;85.56;102129.53;5030952;28;20033;-73
2022/10/18 05:12:17;;;;;;;19.48;8.38;;;;;;;6.38;85.25;102135.66;5029652;28;20100;-73
2022/10/18 05:14:42;;;;;;;16.25;7.85;;;;;;;6.53;84.69;102133.44;5030581;28;20033;-73
2022/10/18 05:17:07;;;;;;;19.17;8.60;;;;;;;6.42;83.89;102136.81;5029122;28;20533;-73
2022/10/18 05:19:33;;;;;;;16.73;8.30;;;;;;;6.27;83.83;102104.00;5030327;28;20026;-78
2022/10/18 05:21:58;;;;;;;13.70;7.75;;;;;;;6.52;83.05;102134.19;5042134;28;20026;-73
2022/10/18 05:24:24;;;;;;;12.95;8.25;;;;;;;6.60;83.58;102133.16;5030754;28;20414;-73
2022/10/18 05:26:49;;;;;;;14.43;6.80;;;;;;;6.78;84.47;102143.97;5023494;28;20490;-69
2022/10/18 05:29:14;;;;;;;24.50;7.20;;;;;;;6.81;85.41;102145.88;5041598;28;20035;-69
2022/10/18 05:31:40;;;;;;;14.38;7.15;;;;;;;6.89;85.53;102147.38;5029207;28;20041;-70
2022/10/18 05:34:05;;;;;;;15.77;6.97;;;;;;;7.00;85.49;102130.25;5033204;28;20044;-70
2022/10/18 05:36:31;;;;;;;14.50;6.75;;;;;;;7.12;84.79;102133.75;5029032;28;20422;-70
2022/10/18 05:38:56;;;;;;;17.52;7.47;;;;;;;7.31;84.47;102142.00;5018465;28;20096;-69
2022/10/18 05:41:22;;;;;;;13.50;8.02;;;;;;;7.44;84.86;102137.94;5026031;28;20049;-69
2022/10/18 05:43:47;;;;;;;13.32;7.05;;;;;;;7.50;84.60;102137.53;5026514;28;20061;-69
2022/10/18 05:46:13;;;;;;;12.45;6.45;;;;;;;7.39;84.94;102107.50;5034002;28;20033;-70
2022/10/18 05:48:38;;;;;;;10.30;6.57;;;;;;;7.79;84.95;102141.41;5030395;28;20116;-69
2022/10/18 05:51:04;;;;;;;14.27;7.50;;;;;;;7.82;84.44;102113.31;5029986;28;20471;-70
2022/10/18 05:53:29;;;;;;;12.20;6.72;;;;;;;8.04;84.25;102132.94;5017199;28;20112;-70
2022/10/18 05:55:59;;;;;;;17.42;7.55;;;;;;;8.13;84.00;102141.31;5030236;28;20047;-71
2022/10/18 05:58:24;;;;;;;16.52;7.18;;;;;;;8.21;84.24;102137.66;5029447;28;20048;-71
2022/10/18 06:00:50;;;;;;;14.43;7.60;;;;;;;8.43;84.01;102141.78;5031802;28;20037;-72
2022/10/18 06:03:17;;;;;;;18.98;9.43;;;;;;;8.52;83.30;102129.63;5029432;28;20100;-72
2022/10/18 06:05:42;;;;;;;16.42;8.90;;;;;;;8.43;83.04;102098.91;5029827;28;20029;-73
2022/10/18 06:08:08;;;;;;;19.42;10.85;;;;;;;8.76;82.51;102144.13;5030223;28;20036;-71
2022/10/18 06:10:33;;;;;;;14.02;9.73;;;;;;;8.87;81.90;102145.78;5030003;28;20033;-71
2022/10/18 06:12:59;;;;;;;14.38;8.75;;;;;;;9.01;81.44;102141.59;5021239;28;20026;-71
2022/10/18 06:15:24;;;;;;;14.85;8.63;;;;;;;8.97;80.83;102119.00;5009569;28;20160;-71
2022/10/18 06:17:50;;;;;;;13.75;9.27;;;;;;;9.17;80.74;102147.06;5023698;28;20037;-71
2022/10/18 06:20:16;;;;;;;15.63;8.93;;;;;;;9.41;80.70;102149.53;5009587;28;20026;-72
2022/10/18 06:22:41;;;;;;;13.35;8.25;;;;;;;9.44;79.86;102121.38;5009761;28;20072;-71
2022/10/18 06:25:07;;;;;;;18.67;9.00;;;;;;;9.71;79.58;102144.69;5009655;28;20057;-72
2022/10/18 06:27:33;;;;;;;18.20;8.70;;;;;;;9.82;80.31;102135.97;5009718;28;20034;-72
2022/10/18 06:29:59;;;;;;;17.70;9.02;;;;;;;9.88;79.77;102141.53;5016702;28;20030;-71
2022/10/18 06:32:24;;;;;;;11.10;7.57;;;;;;;9.91;79.43;102139.97;5035234;28;20044;-71
2022/10/18 06:34:49;;;;;;;14.25;8.45;;;;;;;9.92;80.07;102131.41;5033008;28;20472;-71
2022/10/18 06:37:15;;;;;;;16.48;8.88;;;;;;;9.66;81.04;102099.63;5033040;28;20438;-71
2022/10/18 06:40:00;;;;;;;12.95;7.72;;;;;;;9.87;82.00;102131.13;5035093;28;20057;-70
2022/10/18 06:42:26;;;;;;;12.45;7.75;;;;;;;9.80;82.50;102127.22;4984663;28;20042;-72
2022/10/18 06:44:51;;;;;;;11.52;7.70;;;;;;;9.94;82.07;102120.41;4987872;28;20046;-71
2022/10/18 06:47:16;;;;;;;13.02;7.60;;;;;;;9.61;83.05;102131.94;4971765;28;20064;-72
2022/10/18 06:49:42;;;;;;;14.38;8.10;;;;;;;9.89;82.72;102129.53;4987870;28;20412;-71
2022/10/18 06:52:07;;;;;;;12.95;7.18;;;;;;;10.18;81.59;102120.22;4987952;28;20042;-70
2022/10/18 06:54:33;;;;;;;16.00;8.02;;;;;;;10.35;79.87;102113.56;4988057;28;20056;-70
2022/10/18 06:57:01;;;;;;;16.20;7.95;;;;;;;10.48;79.14;102116.19;4988080;28;20568;-70
2022/10/18 06:59:27;;;;;;;12.32;8.32;;;;;;;10.34;79.81;102119.53;4987821;28;20042;-70
2022/10/18 07:01:52;;;;;;;12.13;9.35;;;;;;;10.47;79.36;102110.94;4987712;28;20133;-70
2022/10/18 07:04:18;;;;;;;15.80;8.40;;;;;;;10.65;79.03;102114.69;4988050;28;20113;-71
2022/10/18 07:06:43;;;;;;;14.32;9.75;;;;;;;10.83;78.53;102117.50;4988188;28;20186;-71
2022/10/18 07:09:09;;;;;;;11.70;7.85;;;;;;;10.96;78.17;102110.53;4986839;28;20089;-71
2022/10/18 07:11:34;;;;;;;12.40;8.13;;;;;;;11.19;77.25;102121.38;4984239;28;20178;-68
2022/10/18 07:14:02;;;;;;;15.02;8.30;;;;;;;11.16;76.82;102075.56;5024490;28;20033;-70
2022/10/18 07:16:29;;;;;;;15.35;8.18;;;;;;;11.26;77.14;102095.09;5037306;28;20067;-70
2022/10/18 07:18:54;;;;;;;12.43;8.65;;;;;;;10.82;78.43;102061.47;5042652;28;20458;-68
2022/10/18 07:21:22;;;;;;;14.20;8.50;;;;;;;11.14;79.15;102103.00;5040015;28;21180;-71
2022/10/18 07:23:49;;;;;;;22.83;8.77;;;;;;;11.30;78.50;102094.47;5025283;28;20028;-72
2022/10/18 07:26:16;;;;;;;17.13;8.65;;;;;;;11.60;77.04;102092.84;5024612;28;20029;-72
2022/10/18 07:28:44;;;;;;;15.93;8.98;;;;;;;11.73;76.03;102076.31;5027239;28;20423;-70
2022/10/18 07:31:10;;;;;;;15.85;8.65;;;;;;;11.86;75.83;102062.38;5033096;28;20045;-72
2022/10/18 07:33:39;;;;;;;14.60;8.32;;;;;;;12.16;74.85;102083.09;5026452;28;20040;-72
2022/10/18 07:36:06;;;;;;;16.47;8.00;;;;;;;12.18;74.74;102072.84;5023551;28;20449;-72
2022/10/18 07:38:32;;;;;;;15.15;8.15;;;;;;;12.39;73.84;102081.81;5016979;28;20322;-74
2022/10/18 07:40:59;;;;;;;17.25;8.98;;;;;;;12.52;75.75;102082.47;5016910;28;20034;-74
2022/10/18 07:43:25;;;;;;;15.73;8.23;;;;;;;12.34;74.71;102062.53;5019870;28;20037;-75
2022/10/18 07:45:59;;;;;;;14.27;8.02;;;;;;;12.36;75.31;102060.94;5025810;28;20055;-73
2022/10/18 07:48:24;;;;;;;18.13;8.30;;;;;;;12.57;74.69;102060.31;5035879;28;20040;-71
2022/10/18 07:50:50;;;;;;;14.57;7.72;;;;;;;12.75;73.56;102058.72;5013206;28;20395;-72
2022/10/18 07:53:16;;;;;;;11.43;7.53;;;;;;;13.02;73.47;102055.81;5015080;28;20030;-75
2022/10/18 07:55:42;;;;;;;14.93;8.27;;;;;;;13.14;72.85;102045.16;5022218;28;20407;-76
2022/10/18 07:58:07;;;;;;;18.15;8.15;;;;;;;13.24;72.33;102020.59;5032207;28;20025;-75
2022/10/18 08:00:33;;;;;;;13.82;8.30;;;;;;;13.35;72.59;102040.19;5029151;28;20064;-76
2022/10/18 08:02:59;;;;;;;13.00;8.48;;;;;;;13.19;72.79;102003.91;5029467;28;20064;-75
2022/10/18 08:05:26;;;;;;;15.02;8.35;;;;;;;13.40;73.15;102043.94;5031767;28;20037;-75
2022/10/18 08:07:53;;;;;;;14.13;8.52;;;;;;;13.62;73.46;102049.31;5032401;28;20017;-75
2022/10/18 08:10:19;;;;;;;15.77;7.95;;;;;;;13.85;71.93;102042.69;5033973;28;20044;-76
2022/10/18 08:12:45;;;;;;;13.75;6.63;;;;;;;14.02;70.31;102022.72;5031404;28;20021;-75
2022/10/18 08:15:10;;;;;;;12.15;6.65;;;;;;;14.16;70.48;102028.56;5014924;28;20037;-72
2022/10/18 08:17:35;;;;;;;13.10;6.38;;;;;;;14.07;68.42;101974.50;5023970;28;20048;-72
2022/10/18 08:20:01;;;;;;;12.18;7.03;;;;;;;14.58;68.76;102034.00;5031812;28;20021;-71
2022/10/18 08:22:26;;;;;;;11.93;6.70;;;;;;;14.72;67.88;102027.72;5031950;28;20031;-71
2022/10/18 08:24:52;;;;;;;11.20;7.10;;;;;;;14.80;67.58;102004.66;5030713;28;20071;-72
2022/10/18 08:27:17;;;;;;;10.77;7.00;;;;;;;15.01;67.34;102009.03;5032075;28;20406;-72
2022/10/18 08:29:43;;;;;;;11.45;7.00;;;;;;;15.12;65.64;101999.97;5030265;28;20475;-72
2022/10/18 08:32:08;;;;;;;14.38;7.90;;;;;;;15.23;66.08;101990.03;5032338;28;20033;-72
2022/10/18 08:34:34;;;;;;;13.45;7.78;;;;;;;15.47;65.42;101999.69;5032036;28;20098;-72
2022/10/18 08:36:59;;;;;;;11.93;6.60;;;;;;;15.58;61.89;101988.00;5032066;28;20032;-72
2022/10/18 08:39:25;;;;;;;10.80;6.22;;;;;;;15.66;63.21;101988.31;5031821;28;20655;-72
2022/10/18 08:42:11;;;;;;;13.75;6.38;;;;;;;15.79;62.30;101985.38;5031942;28;20029;-72
2022/10/18 08:44:50;;;;;;;13.75;6.60;;;;;;;15.94;61.02;101992.94;4970665;28;20035;-71
2022/10/18 08:47:24;;;;;;;16.42;6.72;;;;;;;16.01;62.20;101981.03;4970694;28;20082;-72
2022/10/18 08:49:55;;;;;;;10.38;5.40;;;;;;;16.01;60.52;101981.94;4970962;28;20031;-72
2022/10/18 08:52:47;;;;;;;8.60;4.90;;;;;;;16.12;58.23;101969.31;4970382;28;20477;-72
2022/10/18 08:55:20;;;;;;;8.88;4.38;;;;;;;16.38;56.69;101969.41;4970417;28;20579;-72
2022/10/18 08:57:47;;;;;;;7.28;3.90;;;;;;;16.37;56.11;101932.88;4970453;28;20123;-72
2022/10/18 09:00:22;;;;;;;8.82;3.70;;;;;;;16.64;58.09;101951.25;4970236;28;20599;-71
2022/10/18 09:02:58;;;;;;;7.90;2.70;;;;;;;16.82;57.65;101961.41;4970327;28;20026;-72
2022/10/18 09:05:38;;;;;;;5.47;2.58;;;;;;;17.00;57.72;101957.72;4970520;28;20035;-72
2022/10/18 09:08:19;;;;;;;6.53;2.75;;;;;;;16.74;54.87;101889.88;4970545;28;20039;-72
2022/10/18 09:11:14;;;;;;;4.60;2.60;;;;;;;16.98;56.09;101940.31;4969947;28;20514;-72
2022/10/18 09:14:12;;;;;;;6.20;2.55;;;;;;;17.02;57.47;101943.88;4968284;28;20035;-71
2022/10/18 09:17:05;;;;;;;5.38;2.72;;;;;;;17.09;56.19;101942.38;4930871;29;20438;-71
2022/10/18 09:20:01;;;;;;;6.60;3.10;;;;;;;17.17;54.38;101930.50;4931025;29;20458;-72
2022/10/18 09:22:43;;;;;;;6.03;3.20;;;;;;;17.21;55.44;101914.09;4961673;28;20046;-72
2022/10/18 09:25:14;;;;;;;7.93;3.25;;;;;;;17.39;54.48;101923.34;4969613;28;20026;-76
2022/10/18 09:28:26;;;;;;;6.68;3.40;;;;;;;17.58;57.18;101916.97;4969833;28;20121;-74
2022/10/18 09:30:59;;;;;;;6.10;3.10;;;;;;;17.71;51.74;101913.91;4970040;28;20517;-75
2022/10/18 09:33:33;;;;;;;8.88;2.55;;;;;;;17.36;51.67;101884.06;4969468;28;20062;-76
2022/10/18 09:36:09;;;;;;;6.22;3.00;;;;;;;17.70;52.30;101892.97;4969588;28;20049;-77
2022/10/18 09:38:45;;;;;;;6.57;2.92;;;;;;;17.88;52.26;101893.53;4969425;28;20037;-78
2022/10/18 09:41:38;;;;;;;4.60;2.67;;;;;;;18.01;52.45;101892.19;4969433;28;20101;-74
2022/10/18 09:44:18;;;;;;;7.47;2.75;;;;;;;18.07;52.98;101886.28;4969387;28;20133;-76
2022/10/18 09:46:47;;;;;;;;;;;;;;;18.14;52.66;101875.13;4969754;28;20035;-77
2022/10/18 09:49:21;;;;;;;7.25;2.60;;;;;;;18.25;50.95;101867.59;4969440;28;19910;-74
2022/10/18 09:51:49;;;;;;;7.90;2.83;;;;;;;18.33;50.31;101862.56;4969117;28;20046;-79
2022/10/18 09:54:29;;;;;;;5.85;2.50;;;;;;;18.20;48.38;101856.13;5028141;28;20037;-81
2022/10/18 09:57:13;;;;;;;5.53;2.72;;;;;;;18.33;48.73;101865.19;5029812;28;20829;-71
2022/10/18 09:59:41;;;;;;;6.68;3.28;;;;;;;18.43;49.42;101856.78;5029972;28;20119;-72
2022/10/18 10:02:12;;;;;;;6.57;2.60;;;;;;;18.04;48.81;101849.59;5029946;28;20041;-80
2022/10/18 10:04:38;;;;;;;5.75;2.60;;;;;;;18.26;49.40;101825.81;5021896;28;20128;-79
2022/10/18 10:07:07;;;;;;;6.78;2.50;;;;;;;18.68;47.54;101847.81;5009591;28;20156;-79
2022/10/18 10:09:44;;;;;;;9.27;2.67;;;;;;;18.78;46.17;101827.13;5014742;28;20171;-80
2022/10/18 10:12:29;;;;;;;4.05;2.30;;;;;;;19.10;46.97;101833.16;5030248;28;20124;-80
2022/10/18 10:15:15;;;;;;;7.07;2.33;;;;;;;19.34;45.48;101824.09;5017167;28;20021;-80
2022/10/18 10:17:42;;;;;;;5.05;2.33;;;;;;;19.42;45.39;101819.94;5030234;28;20029;-79
2022/10/18 10:20:19;;;;;;;7.22;2.47;;;;;;;19.53;44.56;101815.81;5030323;28;20021;-81
2022/10/18 10:22:46;;;;;;;7.13;2.97;;;;;;;19.70;47.16;101825.75;5030131;28;20025;-80
2022/10/18 10:25:39;;;;;;;4.57;2.50;;;;;;;19.77;44.42;101806.69;5029892;28;20028;-81
2022/10/18 10:28:18;;;;;;;5.65;2.45;;;;;;;19.74;43.83;101790.91;4968721;28;20154;-80
2022/10/18 10:30:44;;;;;;;4.88;2.75;;;;;;;19.87;45.56;101800.81;4953243;28;20110;-81
2022/10/18 10:33:32;;;;;;;13.23;2.92;;;;;;;19.87;44.11;101789.44;4968821;28;20068;-81
2022/10/18 10:36:00;;;;;;;7.68;2.58;;;;;;;19.80;44.42;101783.19;4968730;28;20058;-81
2022/10/18 10:38:27;;;;;;;7.03;2.97;;;;;;;19.69;44.80;101769.84;4968420;28;20039;-81
2022/10/18 10:40:54;;;;;;;8.40;2.90;;;;;;;19.49;43.50;101760.69;4968919;28;20085;-81
2022/10/18 10:43:35;;;;;;;4.78;2.60;;;;;;;19.73;44.77;101768.19;4968706;28;20077;-81
2022/10/18 10:46:03;;;;;;;6.18;2.55;;;;;;;19.98;43.26;101756.47;4956270;28;20085;-81
2022/10/18 10:48:39;;;;;;;3.45;2.33;;;;;;;20.04;43.09;101726.88;4968943;28;20045;-81
2022/10/18 10:51:09;;;;;;;6.70;2.53;;;;;;;20.21;43.82;101745.50;4968902;28;20041;-81
2022/10/18 10:53:55;;;;;;;8.35;2.28;;;;;;;20.29;43.09;101740.41;4985057;28;20045;-81
2022/10/18 10:56:27;;;;;;;5.65;2.40;;;;;;;20.10;42.13;101699.88;4972797;28;20023;-81
2022/10/18 10:58:54;;;;;;;5.93;2.63;;;;;;;20.25;41.45;101701.88;4933693;29;20070;-81
2022/10/18 11:01:29;;;;;;;6.15;2.40;;;;;;;20.48;42.01;101721.47;4951822;29;20046;-82
2022/10/18 11:04:02;;;;;;;8.30;2.40;;;;;;;20.44;41.57;101706.56;4955022;28;20130;-81
2022/10/18 11:06:35;;;;;;;8.73;2.83;;;;;;;20.20;41.61;101700.06;4972582;28;20037;-81
2022/10/18 11:09:10;;;;;;;5.38;2.20;;;;;;;20.29;42.57;101709.81;4972473;28;20468;-81
2022/10/18 11:11:45;;;;;;;6.57;2.85;;;;;;;20.39;41.78;101696.84;4972043;28;20031;-81
2022/10/18 11:14:40;;;;;;;7.28;2.60;;;;;;;20.61;40.12;101691.09;4972292;28;20046;-81
2022/10/18 11:17:23;;;;;;;5.63;2.70;;;;;;;20.71;41.38;101696.47;4950040;29;20039;-82
2022/10/18 11:19:57;;;;;;;5.70;2.22;;;;;;;20.76;40.07;101679.97;4952883;29;20497;-81
2022/10/18 11:22:26;;;;;;;5.45;2.28;;;;;;;20.77;40.10;101681.75;4952937;29;20605;-81
2022/10/18 11:24:52;;;;;;;5.40;2.15;;;;;;;20.38;41.72;101632.16;4952906;29;20039;-82
2022/10/18 11:27:19;;;;;;;6.97;2.70;;;;;;;20.49;41.42;101675.16;4952734;29;20509;-81
2022/10/18 11:30:05;;;;;;;6.88;2.78;;;;;;;20.24;40.74;101627.56;4961214;28;20054;-81
2022/10/18 11:32:44;;;;;;;5.70;2.67;;;;;;;20.62;42.02;101666.63;4971748;28;20058;-81
2022/10/18 11:35:47;;;;;;;15.23;3.13;;;;;;;20.43;40.98;101657.56;4972120;28;20126;-81
2022/10/18 11:38:28;;;;;;;4.72;2.55;;;;;;;20.62;42.09;101663.09;4911487;29;20426;-82